WAT4275 CYGL-CYKL
Flight info
| Callsign | WAT4275 |
|---|---|
| Flight time | N/A |
| Altitude | 3500 |
| Route | YGL DCT 5470N |
| Aircraft | A319/M-SDE3FGHIRWY/LB1 |
Departure
| Time | 2026-04-18 22:30 |
|---|---|
| Airport | La Grande Rivière Airport (CYGL) |
Arrival
| Time | N/A |
|---|---|
| Airport | Schefferville Airport (CYKL) |
| Time | Latitude | Longitude | Altitude | Speed | Heading |
|---|---|---|---|---|---|
| 2026-04-18 22:26 | 53.62649 | -77.69951 | 632 ft | 0 kts | 204° |
| 2026-04-18 22:27 | 53.62636 | -77.69949 | 636 ft | 6 kts | 160° |
| 2026-04-18 22:27 | 53.62620 | -77.69828 | 640 ft | 17 kts | 98° |
| 2026-04-18 22:28 | 53.62577 | -77.69609 | 637 ft | 23 kts | 113° |
| 2026-04-18 22:28 | 53.62507 | -77.69345 | 641 ft | 23 kts | 127° |
| 2026-04-18 22:28 | 53.62402 | -77.69183 | 645 ft | 19 kts | 140° |
| 2026-04-18 22:28 | 53.62313 | -77.69056 | 647 ft | 15 kts | 142° |
| 2026-04-18 22:29 | 53.62226 | -77.69064 | 646 ft | 12 kts | 237° |
| 2026-04-18 22:29 | 53.62244 | -77.69229 | 644 ft | 31 kts | 293° |
| 2026-04-18 22:29 | 53.62436 | -77.69992 | 638 ft | 109 kts | 293° |
| 2026-04-18 22:29 | 53.62680 | -77.70952 | 649 ft | 152 kts | 293° |
| 2026-04-18 22:30 | 53.63154 | -77.72543 | 1481 ft | 148 kts | 313° |
| 2026-04-18 22:30 | 53.64041 | -77.73122 | 2421 ft | 140 kts | 9° |
| 2026-04-18 22:30 | 53.64801 | -77.72213 | 3161 ft | 143 kts | 63° |
| 2026-04-18 22:30 | 53.64934 | -77.70273 | 3352 ft | 193 kts | 96° |
| 2026-04-18 22:31 | 53.64698 | -77.67705 | 3529 ft | 247 kts | 100° |
| 2026-04-18 22:31 | 53.64438 | -77.64556 | 3864 ft | 293 kts | 95° |
| 2026-04-18 22:31 | 53.64328 | -77.61089 | 4244 ft | 282 kts | 91° |
| 2026-04-18 22:31 | 53.64314 | -77.57997 | 4627 ft | 248 kts | 90° |
| 2026-04-18 22:32 | 53.64334 | -77.55045 | 5018 ft | 265 kts | 89° |
| 2026-04-18 22:32 | 53.64408 | -77.51898 | 5392 ft | 266 kts | 87° |
| 2026-04-18 22:32 | 53.64527 | -77.48801 | 5778 ft | 270 kts | 85° |
| 2026-04-18 22:32 | 53.64683 | -77.45651 | 6156 ft | 269 kts | 85° |
| 2026-04-18 22:33 | 53.64866 | -77.42493 | 6533 ft | 272 kts | 84° |
| 2026-04-18 22:33 | 53.65069 | -77.39315 | 6920 ft | 273 kts | 83° |
| 2026-04-18 22:33 | 53.65285 | -77.36136 | 7282 ft | 274 kts | 83° |
| 2026-04-18 22:33 | 53.65513 | -77.32931 | 7659 ft | 277 kts | 83° |
| 2026-04-18 22:34 | 53.65748 | -77.29711 | 8029 ft | 277 kts | 83° |
| 2026-04-18 22:34 | 53.65989 | -77.26476 | 8410 ft | 279 kts | 83° |
| 2026-04-18 22:34 | 53.66236 | -77.23209 | 8789 ft | 281 kts | 83° |
| 2026-04-18 22:34 | 53.66485 | -77.19941 | 9185 ft | 280 kts | 83° |
| 2026-04-18 22:35 | 53.66733 | -77.16697 | 9826 ft | 283 kts | 83° |
| 2026-04-18 22:35 | 53.66995 | -77.13284 | 10466 ft | 303 kts | 83° |
| 2026-04-18 22:35 | 53.67273 | -77.09634 | 11100 ft | 324 kts | 83° |
| 2026-04-18 22:35 | 53.67564 | -77.05779 | 11728 ft | 336 kts | 83° |
| 2026-04-18 22:36 | 53.67853 | -77.01920 | 12343 ft | 336 kts | 83° |
| 2026-04-18 22:36 | 53.68147 | -76.97989 | 12974 ft | 341 kts | 83° |
| 2026-04-18 22:36 | 53.68445 | -76.93994 | 13602 ft | 345 kts | 83° |
| 2026-04-18 22:36 | 53.68745 | -76.89964 | 14229 ft | 347 kts | 83° |
| 2026-04-18 22:37 | 53.69046 | -76.85909 | 14851 ft | 350 kts | 83° |
| 2026-04-18 22:37 | 53.69349 | -76.81812 | 15483 ft | 354 kts | 83° |
| 2026-04-18 22:37 | 53.69655 | -76.77659 | 16112 ft | 358 kts | 83° |
| 2026-04-18 22:37 | 53.69962 | -76.73470 | 16741 ft | 361 kts | 83° |
| 2026-04-18 22:38 | 53.70271 | -76.69244 | 17366 ft | 363 kts | 83° |
| 2026-04-18 22:38 | 53.70581 | -76.64994 | 17994 ft | 367 kts | 83° |
| 2026-04-18 22:38 | 53.70893 | -76.60688 | 18624 ft | 371 kts | 83° |
| 2026-04-18 22:38 | 53.71207 | -76.56342 | 19253 ft | 375 kts | 83° |
| 2026-04-18 22:39 | 53.71522 | -76.51946 | 19884 ft | 378 kts | 83° |
| 2026-04-18 22:39 | 53.71833 | -76.47582 | 20497 ft | 381 kts | 83° |
| 2026-04-18 22:39 | 53.72151 | -76.43113 | 21122 ft | 385 kts | 83° |
| 2026-04-18 22:39 | 53.72469 | -76.38600 | 21750 ft | 389 kts | 83° |
| 2026-04-18 22:40 | 53.72790 | -76.34038 | 22375 ft | 393 kts | 83° |
| 2026-04-18 22:40 | 53.73111 | -76.29438 | 23001 ft | 396 kts | 83° |
| 2026-04-18 22:40 | 53.73434 | -76.24793 | 23630 ft | 400 kts | 83° |
| 2026-04-18 22:40 | 53.73758 | -76.20105 | 24255 ft | 403 kts | 83° |
| 2026-04-18 22:41 | 53.74083 | -76.15375 | 24882 ft | 406 kts | 83° |
| 2026-04-18 22:41 | 53.74407 | -76.10615 | 25509 ft | 409 kts | 83° |
| 2026-04-18 22:41 | 53.74731 | -76.05836 | 26135 ft | 410 kts | 83° |
| 2026-04-18 22:41 | 53.75054 | -76.01039 | 26762 ft | 411 kts | 83° |
| 2026-04-18 22:42 | 53.75376 | -75.96235 | 27387 ft | 412 kts | 83° |
| 2026-04-18 22:42 | 53.75693 | -75.91484 | 28005 ft | 412 kts | 83° |
| 2026-04-18 22:42 | 53.76012 | -75.86676 | 28632 ft | 411 kts | 83° |
| 2026-04-18 22:42 | 53.76327 | -75.81877 | 29258 ft | 410 kts | 84° |
| 2026-04-18 22:43 | 53.76640 | -75.77094 | 29884 ft | 408 kts | 84° |
| 2026-04-18 22:43 | 53.76950 | -75.72336 | 30507 ft | 406 kts | 84° |
| 2026-04-18 22:43 | 53.77255 | -75.67614 | 31113 ft | 404 kts | 84° |
| 2026-04-18 22:43 | 53.77561 | -75.62846 | 31359 ft | 412 kts | 84° |
| 2026-04-18 22:44 | 53.77871 | -75.57998 | 31614 ft | 418 kts | 84° |
| 2026-04-18 22:44 | 53.78183 | -75.53070 | 31869 ft | 425 kts | 84° |
| 2026-04-18 22:44 | 53.78498 | -75.48062 | 32122 ft | 431 kts | 84° |
| 2026-04-18 22:44 | 53.78816 | -75.42977 | 32375 ft | 437 kts | 84° |
| 2026-04-18 22:45 | 53.79134 | -75.37829 | 32633 ft | 443 kts | 84° |
| 2026-04-18 22:45 | 53.79456 | -75.32596 | 32835 ft | 450 kts | 84° |
| 2026-04-18 22:45 | 53.80106 | -75.21899 | 32968 ft | 469 kts | 84° |
| 2026-04-18 22:46 | 53.80766 | -75.10875 | 32983 ft | 466 kts | 84° |
| 2026-04-18 22:46 | 53.81404 | -75.00035 | 32997 ft | 462 kts | 84° |
| 2026-04-18 22:47 | 53.82033 | -74.89187 | 32999 ft | 464 kts | 84° |
| 2026-04-18 22:47 | 53.82650 | -74.78373 | 32998 ft | 463 kts | 84° |
| 2026-04-18 22:48 | 53.83260 | -74.67519 | 32999 ft | 463 kts | 84° |
| 2026-04-18 22:48 | 53.83860 | -74.56639 | 33001 ft | 464 kts | 85° |
| 2026-04-18 22:49 | 53.84445 | -74.45762 | 32999 ft | 464 kts | 85° |
| 2026-04-18 22:49 | 53.85016 | -74.34902 | 32999 ft | 463 kts | 85° |
| 2026-04-18 22:50 | 53.85579 | -74.24029 | 33001 ft | 465 kts | 85° |
| 2026-04-18 22:50 | 53.86136 | -74.13097 | 32999 ft | 464 kts | 85° |
| 2026-04-18 22:51 | 53.86680 | -74.02277 | 33000 ft | 463 kts | 85° |
| 2026-04-18 22:51 | 53.87219 | -73.91363 | 32999 ft | 465 kts | 85° |
| 2026-04-18 22:52 | 53.87751 | -73.80423 | 33000 ft | 465 kts | 85° |
| 2026-04-18 22:52 | 53.88271 | -73.69526 | 33000 ft | 463 kts | 85° |
| 2026-04-18 22:53 | 53.88781 | -73.58636 | 33000 ft | 464 kts | 85° |
| 2026-04-18 22:53 | 53.89280 | -73.47790 | 32999 ft | 465 kts | 85° |
| 2026-04-18 22:54 | 53.89772 | -73.36859 | 32998 ft | 464 kts | 85° |
| 2026-04-18 22:54 | 53.90254 | -73.25930 | 32999 ft | 464 kts | 85° |
| 2026-04-18 22:55 | 53.90727 | -73.14996 | 33001 ft | 465 kts | 86° |
| 2026-04-18 22:55 | 53.91189 | -73.04071 | 32999 ft | 464 kts | 86° |
| 2026-04-18 22:56 | 53.91637 | -72.93226 | 33001 ft | 464 kts | 86° |
| 2026-04-18 22:56 | 53.92080 | -72.82284 | 33001 ft | 466 kts | 86° |
| 2026-04-18 22:57 | 53.92513 | -72.71336 | 33001 ft | 464 kts | 86° |
| 2026-04-18 22:57 | 53.92934 | -72.60417 | 32999 ft | 464 kts | 86° |
| 2026-04-18 22:58 | 53.93347 | -72.49467 | 33001 ft | 465 kts | 86° |
| 2026-04-18 22:58 | 53.93750 | -72.38501 | 33002 ft | 465 kts | 86° |
| 2026-04-18 22:59 | 53.94142 | -72.27559 | 33001 ft | 464 kts | 86° |
| 2026-04-18 22:59 | 53.94524 | -72.16606 | 33001 ft | 465 kts | 86° |
| 2026-04-18 23:00 | 53.94897 | -72.05642 | 32999 ft | 465 kts | 86° |
| 2026-04-18 23:00 | 53.95258 | -71.94697 | 33003 ft | 464 kts | 87° |
| 2026-04-18 23:01 | 53.95610 | -71.83753 | 33001 ft | 465 kts | 87° |
| 2026-04-18 23:01 | 53.95953 | -71.72767 | 33000 ft | 465 kts | 87° |
| 2026-04-18 23:02 | 53.96283 | -71.61867 | 33000 ft | 464 kts | 87° |
| 2026-04-18 23:02 | 53.96605 | -71.50905 | 33001 ft | 465 kts | 87° |
| 2026-04-18 23:03 | 53.96918 | -71.39929 | 33001 ft | 466 kts | 87° |
| 2026-04-18 23:03 | 53.97221 | -71.28942 | 33000 ft | 465 kts | 87° |
| 2026-04-18 23:04 | 53.97513 | -71.17963 | 33000 ft | 465 kts | 87° |